Terminal Aerodrome Forecast
Issued by NWS

Current Version | Previous Version | Text Only | Print | Product List | Glossary On
Versions: 1 2 3 4 5 6 7 8 9 10 11 12 13 14 15 16 17 18 19 20 21 22 23 24 25 26 27 28 29 30
662
FTUS45 KREV 261120
TAFTVL
TAF
KTVL 261120Z 2612/2712 VRB04KT P6SM SCT060 BKN180
     FM261800 19010KT P6SM BKN070 OVC120
     FM262200 19010G18KT P6SM VCSH BKN050 OVC090
     FM270300 19008KT 5SM -SHRASN BKN030 OVC050=

USA.gov is the U.S. government's official web portal to all federal, state and local government web resources and services.